createdAt,value
2018-04-24T00:02:20.208Z,90.50
2018-04-24T00:04:47.783Z,91.07
2018-04-24T00:07:15.359Z,90.78
2018-04-24T00:09:43.215Z,91.41
2018-04-24T00:12:10.799Z,91.63
2018-04-24T00:14:38.388Z,92.53
2018-04-24T00:17:06.008Z,93.09
2018-04-24T00:19:33.595Z,92.45
2018-04-24T00:22:01.175Z,92.81
2018-04-24T00:24:28.796Z,93.36
2018-04-24T00:26:56.377Z,93.45
2018-04-24T00:29:23.963Z,91.99
2018-04-24T00:31:51.595Z,92.17
2018-04-24T00:34:19.222Z,92.87
2018-04-24T00:36:46.786Z,94.22
2018-04-24T00:39:14.392Z,92.83
2018-04-24T00:41:41.973Z,93.14
2018-04-24T00:44:09.551Z,93.27
2018-04-24T00:46:37.162Z,93.71
2018-04-24T00:49:04.746Z,93.03
2018-04-24T00:51:32.334Z,93.31
2018-04-24T00:53:59.951Z,93.76
2018-04-24T00:56:27.808Z,92.98
2018-04-24T00:58:55.355Z,93.23
2018-04-24T01:01:22.997Z,93.83
2018-04-24T01:03:50.584Z,93.27
2018-04-24T01:06:18.163Z,92.89
2018-04-24T01:08:45.770Z,92.51
2018-04-24T01:11:13.338Z,93.23
2018-04-24T01:13:40.923Z,93.05
2018-04-24T01:16:08.529Z,92.44
2018-04-24T01:18:36.117Z,92.18
2018-04-24T01:21:03.747Z,92.43
2018-04-24T01:23:31.410Z,92.46
2018-04-24T01:25:59.075Z,92.33
2018-04-24T01:28:26.734Z,91.97
2018-04-24T01:30:54.356Z,91.61
2018-04-24T01:33:21.975Z,92.23
2018-04-24T01:35:49.739Z,91.53
2018-04-24T01:38:17.360Z,92.00
2018-04-24T01:40:45.047Z,92.55
2018-04-24T01:43:12.626Z,93.56
2018-04-24T01:45:40.250Z,94.59
2018-04-24T01:48:08.017Z,95.22
2018-04-24T01:50:35.710Z,94.86
2018-04-24T01:53:03.319Z,93.22
2018-04-24T01:55:30.898Z,92.37
2018-04-24T01:57:58.484Z,92.16
2018-04-24T02:00:26.095Z,92.13
2018-04-24T02:02:53.702Z,91.78
2018-04-24T02:05:21.475Z,92.18
2018-04-24T02:07:49.087Z,91.81
2018-04-24T02:10:16.708Z,91.91
2018-04-24T02:12:44.288Z,92.94
2018-04-24T02:15:11.912Z,93.70
2018-04-24T02:17:39.512Z,94.04
2018-04-24T02:20:07.108Z,94.35
2018-04-24T02:22:34.972Z,94.88
2018-04-24T02:25:02.692Z,95.41
2018-04-24T02:27:30.433Z,95.42
2018-04-24T02:29:58.117Z,94.67
2018-04-24T02:32:25.736Z,93.93
2018-04-24T02:34:53.425Z,93.67
2018-04-24T02:37:21.352Z,91.36
2018-04-24T02:39:49.159Z,91.85
2018-04-24T02:42:16.825Z,92.81
2018-04-24T02:44:44.473Z,93.85
2018-04-24T02:47:12.047Z,93.83
2018-04-24T02:49:39.631Z,92.73
2018-04-24T02:52:07.540Z,92.48
2018-04-24T02:54:35.319Z,92.74
2018-04-24T02:57:03.000Z,93.04
2018-04-24T02:59:30.860Z,93.90
2018-04-24T03:01:58.448Z,94.51
2018-04-24T03:04:26.028Z,95.11
2018-04-24T03:06:53.978Z,95.49
2018-04-24T03:09:21.564Z,95.57
2018-04-24T03:11:49.189Z,95.17
2018-04-24T03:14:16.790Z,94.50
2018-04-24T03:16:44.368Z,95.03
2018-04-24T03:19:11.948Z,95.68
2018-04-24T03:21:39.596Z,94.96
2018-04-24T03:24:07.176Z,93.79
2018-04-24T03:26:34.751Z,92.89
2018-04-24T03:29:02.383Z,93.08
2018-04-24T03:31:29.968Z,93.43
2018-04-24T03:33:57.556Z,94.06
2018-04-24T03:36:25.184Z,94.41
2018-04-24T03:38:52.777Z,94.45
2018-04-24T03:41:20.367Z,94.00
2018-04-24T03:43:47.993Z,93.93
2018-04-24T03:46:15.567Z,93.51
2018-04-24T03:48:43.161Z,91.91
2018-04-24T03:51:10.757Z,90.75
2018-04-24T03:53:38.324Z,85.65
2018-04-24T03:56:05.906Z,81.15
2018-04-24T03:58:33.530Z,74.95
2018-04-24T04:01:01.116Z,70.25
2018-04-24T04:03:28.708Z,67.64
2018-04-24T04:05:56.324Z,65.29
2018-04-24T04:08:23.976Z,62.90
2018-04-24T04:10:51.561Z,60.28
2018-04-24T04:13:19.175Z,58.82
2018-04-24T04:15:46.756Z,58.75
2018-04-24T04:18:26.202Z,58.96
2018-04-24T04:21:05.429Z,58.03
2018-04-24T04:23:44.642Z,58.46
2018-04-24T04:26:12.220Z,59.29
2018-04-24T04:28:40.707Z,61.85
2018-04-24T04:31:08.329Z,62.24
2018-04-24T04:33:35.921Z,60.97
2018-04-24T04:36:03.496Z,59.15
2018-04-24T04:38:31.103Z,55.74
2018-04-24T04:40:58.685Z,52.88
2018-04-24T04:43:26.249Z,50.44
2018-04-24T04:45:53.867Z,48.30
2018-04-24T04:48:21.446Z,46.67
2018-04-24T04:50:49.031Z,43.55
2018-04-24T04:53:16.658Z,41.23
2018-04-24T04:55:44.245Z,39.02
2018-04-24T04:58:11.838Z,38.73
2018-04-24T05:00:39.459Z,37.58
2018-04-24T05:03:07.079Z,37.06
2018-04-24T05:05:34.651Z,36.92
2018-04-24T05:08:02.256Z,36.18
2018-04-24T05:10:29.837Z,36.08
2018-04-24T05:12:57.416Z,34.50
2018-04-24T05:15:25.043Z,32.95
2018-04-24T05:17:52.617Z,33.33
2018-04-24T05:20:20.205Z,31.80
2018-04-24T05:22:47.821Z,32.57
2018-04-24T05:25:15.456Z,31.33
2018-04-24T05:27:43.072Z,31.59
2018-04-24T05:30:10.701Z,31.09
2018-04-24T05:32:38.284Z,31.99
2018-04-24T05:35:05.864Z,32.13
2018-04-24T05:37:33.494Z,31.56
2018-04-24T05:40:01.080Z,31.63
2018-04-24T05:42:28.663Z,29.83
2018-04-24T05:44:56.379Z,29.86
2018-04-24T05:47:23.960Z,30.06
2018-04-24T05:49:51.717Z,30.89
2018-04-24T05:52:19.343Z,29.17
2018-04-24T05:54:46.915Z,27.74
2018-04-24T05:57:14.487Z,29.43
2018-04-24T05:59:42.092Z,28.98
2018-04-24T06:02:09.661Z,28.46
2018-04-24T06:04:37.253Z,27.85
2018-04-24T06:07:04.863Z,28.42
2018-04-24T06:09:32.452Z,29.14
2018-04-24T06:12:00.052Z,29.00
2018-04-24T06:14:27.677Z,28.47
2018-04-24T06:16:55.258Z,27.79
2018-04-24T06:19:22.892Z,27.47
2018-04-24T06:21:50.514Z,25.84
2018-04-24T06:24:18.096Z,24.91
2018-04-24T06:26:45.677Z,26.01
2018-04-24T06:29:13.297Z,25.92
2018-04-24T06:31:40.872Z,27.91
2018-04-24T06:34:08.471Z,26.39
2018-04-24T06:36:36.150Z,26.31
2018-04-24T06:39:03.843Z,25.34
2018-04-24T06:41:31.439Z,25.83
2018-04-24T06:43:59.050Z,25.86
2018-04-24T06:46:26.630Z,25.65
2018-04-24T06:48:54.215Z,25.04
2018-04-24T06:51:21.841Z,27.16
2018-04-24T06:53:49.470Z,25.56
2018-04-24T06:56:17.058Z,22.40
2018-04-24T06:58:44.685Z,21.34
2018-04-24T07:01:12.270Z,22.13
2018-04-24T07:03:39.848Z,20.63
2018-04-24T07:06:07.483Z,20.96
2018-04-24T07:08:35.067Z,21.67
2018-04-24T07:11:02.664Z,21.37
2018-04-24T07:13:30.335Z,22.85
2018-04-24T07:15:57.930Z,21.50
2018-04-24T07:18:25.514Z,22.93
2018-04-24T07:20:53.137Z,22.25
2018-04-24T07:23:20.715Z,23.80
2018-04-24T07:25:48.298Z,21.54
2018-04-24T07:28:15.975Z,21.81
2018-04-24T07:30:43.556Z,21.10
2018-04-24T07:33:11.139Z,21.07
2018-04-24T07:35:38.757Z,21.54
2018-04-24T07:38:06.348Z,21.26
2018-04-24T07:40:33.933Z,20.86
2018-04-24T07:43:01.552Z,20.04
2018-04-24T07:45:29.146Z,22.00
2018-04-24T07:47:56.725Z,20.94
2018-04-24T07:50:24.340Z,23.03
2018-04-24T07:52:51.926Z,20.06
2018-04-24T07:55:19.504Z,20.06
2018-04-24T07:57:47.128Z,20.69
2018-04-24T08:00:14.711Z,19.55
2018-04-24T08:02:42.283Z,20.08
2018-04-24T08:05:09.911Z,19.71
2018-04-24T08:07:37.492Z,21.44
2018-04-24T08:10:05.104Z,22.26
2018-04-24T08:12:32.726Z,21.38
2018-04-24T08:15:00.316Z,21.30
2018-04-24T08:17:27.970Z,21.83
2018-04-24T08:19:55.649Z,19.62
2018-04-24T08:22:23.332Z,19.53
2018-04-24T08:24:50.930Z,19.53
2018-04-24T08:27:18.551Z,17.81
2018-04-24T08:29:46.140Z,19.57
2018-04-24T08:32:13.729Z,20.13
2018-04-24T08:34:41.359Z,18.32
2018-04-24T08:37:08.936Z,17.87
2018-04-24T08:39:36.519Z,19.28
2018-04-24T08:42:04.132Z,18.17
2018-04-24T08:44:31.713Z,18.02
2018-04-24T08:46:59.283Z,20.53
2018-04-24T08:49:26.898Z,18.61
2018-04-24T08:51:54.499Z,18.86
2018-04-24T08:54:22.101Z,17.16
2018-04-24T08:56:49.727Z,18.04
2018-04-24T08:59:17.317Z,20.87
2018-04-24T09:01:44.904Z,22.46
2018-04-24T09:04:12.555Z,20.21
2018-04-24T09:06:40.134Z,18.80
2018-04-24T09:09:07.706Z,20.75
2018-04-24T09:11:35.320Z,19.61
2018-04-24T09:14:02.955Z,18.15
2018-04-24T09:16:30.524Z,18.70
2018-04-24T09:18:58.155Z,18.83
2018-04-24T09:21:25.759Z,17.44
2018-04-24T09:23:53.695Z,18.18
2018-04-24T09:26:21.393Z,19.43
2018-04-24T09:28:48.982Z,21.41
2018-04-24T09:31:16.603Z,19.32
2018-04-24T09:33:44.245Z,20.11
2018-04-24T09:36:11.828Z,21.08
2018-04-24T09:38:39.413Z,19.91
2018-04-24T09:41:07.024Z,19.15
2018-04-24T09:43:34.604Z,21.26
2018-04-24T09:46:02.239Z,20.23
2018-04-24T09:48:29.840Z,21.89
2018-04-24T09:50:57.414Z,18.92
2018-04-24T09:53:25.007Z,18.89
2018-04-24T09:55:52.631Z,19.32
2018-04-24T09:58:20.224Z,19.68
2018-04-24T10:00:47.832Z,18.92
2018-04-24T10:03:15.464Z,18.19
2018-04-24T10:05:43.042Z,16.80
2018-04-24T10:08:10.621Z,18.02
2018-04-24T10:10:38.223Z,19.05
2018-04-24T10:13:05.877Z,19.07
2018-04-24T10:15:33.459Z,19.54
2018-04-24T10:18:01.168Z,18.53
2018-04-24T10:20:28.743Z,19.88
2018-04-24T10:22:56.335Z,17.92
2018-04-24T10:25:23.946Z,17.70
2018-04-24T10:27:51.519Z,18.57
2018-04-24T10:30:19.096Z,18.21
2018-04-24T10:32:46.703Z,18.74
2018-04-24T10:35:14.278Z,19.90
2018-04-24T10:37:41.860Z,20.33
2018-04-24T10:40:09.467Z,18.10
2018-04-24T10:42:37.059Z,18.31
2018-04-24T10:45:04.665Z,19.66
2018-04-24T10:47:32.280Z,19.73
2018-04-24T10:50:00.024Z,20.47
2018-04-24T10:52:27.663Z,19.44
2018-04-24T10:54:55.256Z,19.37
2018-04-24T10:57:22.821Z,17.60
2018-04-24T10:59:50.430Z,19.40
2018-04-24T11:02:18.033Z,20.60
2018-04-24T11:04:45.624Z,22.02
2018-04-24T11:07:13.208Z,22.09
2018-04-24T11:09:40.820Z,22.36
2018-04-24T11:12:08.416Z,21.82
2018-04-24T11:14:35.999Z,22.01
2018-04-24T11:17:03.640Z,21.22
2018-04-24T11:19:31.237Z,19.58
2018-04-24T11:21:58.819Z,17.83
2018-04-24T11:24:26.449Z,17.43
2018-04-24T11:26:54.039Z,19.35
2018-04-24T11:29:21.616Z,19.11
2018-04-24T11:31:49.228Z,20.15
2018-04-24T11:34:16.809Z,18.06
2018-04-24T11:36:44.452Z,18.76
2018-04-24T11:39:12.069Z,19.11
2018-04-24T11:41:39.726Z,19.40
2018-04-24T11:44:07.353Z,19.91
2018-04-24T11:46:34.970Z,18.22
2018-04-24T11:49:02.625Z,17.45
2018-04-24T11:51:30.183Z,18.24
2018-04-24T11:53:57.847Z,16.43
2018-04-24T11:56:25.409Z,13.94
2018-04-24T11:58:53.000Z,15.24
2018-04-24T12:01:20.856Z,15.64
2018-04-24T12:03:48.579Z,15.22
2018-04-24T12:06:16.148Z,17.01
2018-04-24T12:08:43.765Z,16.90
2018-04-24T12:11:11.337Z,16.80
2018-04-24T12:13:39.019Z,17.74
2018-04-24T12:16:06.623Z,17.39
2018-04-24T12:18:34.203Z,16.77
2018-04-24T12:21:01.784Z,16.52
2018-04-24T12:23:29.399Z,18.48
2018-04-24T12:25:56.991Z,17.52
2018-04-24T12:28:24.581Z,16.94
2018-04-24T12:30:52.187Z,17.61
2018-04-24T12:33:19.760Z,18.53
2018-04-24T12:35:47.342Z,18.05
2018-04-24T12:38:14.988Z,18.31
2018-04-24T12:40:42.569Z,18.26
2018-04-24T12:43:10.149Z,19.54
2018-04-24T12:45:37.769Z,18.36
2018-04-24T12:48:05.341Z,19.27
2018-04-24T12:50:32.915Z,16.62
2018-04-24T12:53:00.510Z,17.73
2018-04-24T12:55:28.081Z,17.98
2018-04-24T12:57:55.677Z,17.93
2018-04-24T13:00:23.310Z,17.92
2018-04-24T13:02:50.888Z,18.71
2018-04-24T13:05:18.481Z,20.01
2018-04-24T13:07:46.098Z,21.41
2018-04-24T13:10:13.680Z,20.89
2018-04-24T13:12:41.262Z,23.02
2018-04-24T13:15:09.029Z,25.20
2018-04-24T13:17:36.617Z,23.90
2018-04-24T13:20:04.204Z,23.62
2018-04-24T13:22:31.806Z,23.88
2018-04-24T13:24:59.361Z,23.92
2018-04-24T13:27:26.946Z,24.68
2018-04-24T13:29:54.564Z,23.88
2018-04-24T13:32:22.144Z,24.49
2018-04-24T13:34:49.722Z,24.26
2018-04-24T13:37:17.475Z,24.42
2018-04-24T13:39:45.037Z,23.34
2018-04-24T13:42:12.731Z,24.43
2018-04-24T13:44:40.258Z,23.39
2018-04-24T13:47:08.007Z,24.40
2018-04-24T13:49:35.583Z,23.94
2018-04-24T13:52:03.188Z,24.97
2018-04-24T13:54:30.760Z,23.63
2018-04-24T13:56:58.317Z,24.45
2018-04-24T13:59:25.915Z,24.45
2018-04-24T14:01:53.520Z,24.77
2018-04-24T14:04:21.084Z,25.16
2018-04-24T14:06:48.677Z,26.23
2018-04-24T14:09:16.279Z,26.73
2018-04-24T14:11:43.863Z,27.28
2018-04-24T14:14:11.499Z,27.47
2018-04-24T14:16:39.064Z,27.74
2018-04-24T14:19:06.805Z,26.49
2018-04-24T14:21:34.441Z,26.50
2018-04-24T14:24:02.037Z,26.38
2018-04-24T14:26:29.621Z,26.64
2018-04-24T14:28:57.233Z,27.60
2018-04-24T14:31:24.813Z,26.98
2018-04-24T14:33:52.439Z,27.66
2018-04-24T14:36:20.049Z,27.40
2018-04-24T14:38:47.628Z,28.27
2018-04-24T14:44:00.919Z,27.97
2018-04-24T14:46:35.700Z,29.09
2018-04-24T14:49:04.900Z,28.47
2018-04-24T14:51:35.648Z,28.27
2018-04-24T14:56:43.964Z,29.12
2018-04-24T14:59:17.598Z,28.74
2018-04-24T15:04:24.290Z,28.25
2018-04-24T15:06:54.361Z,27.75
2018-04-24T15:09:23.107Z,29.92
2018-04-24T15:11:51.679Z,28.76
2018-04-24T15:14:21.379Z,29.60
2018-04-24T15:16:50.818Z,27.51
2018-04-24T15:19:23.628Z,27.68
2018-04-24T15:21:52.330Z,29.04
2018-04-24T15:24:20.966Z,28.82
2018-04-24T15:26:50.925Z,28.18
2018-04-24T15:29:22.485Z,28.79
2018-04-24T15:31:50.070Z,28.55
2018-04-24T15:34:17.664Z,28.62
2018-04-24T15:36:45.229Z,28.72
2018-04-24T15:39:12.861Z,28.88
2018-04-24T15:41:40.447Z,29.68
2018-04-24T15:44:08.039Z,29.12
2018-04-24T15:46:35.660Z,29.48
2018-04-24T15:49:03.248Z,30.73
2018-04-24T15:51:30.832Z,30.73
2018-04-24T15:53:58.453Z,30.79
2018-04-24T15:56:26.035Z,31.41
2018-04-24T15:58:53.600Z,31.56
2018-04-24T16:01:21.224Z,31.56
2018-04-24T16:03:48.808Z,31.88
2018-04-24T16:06:16.385Z,31.44
2018-04-24T16:08:43.989Z,32.72
2018-04-24T16:11:11.569Z,32.58
2018-04-24T16:13:39.154Z,33.57
2018-04-24T16:16:06.758Z,35.66
2018-04-24T16:18:34.382Z,36.97
2018-04-24T16:21:01.968Z,37.55
2018-04-24T16:23:29.579Z,39.03
2018-04-24T16:25:57.176Z,40.09
2018-04-24T16:28:24.751Z,41.27
2018-04-24T16:30:52.409Z,41.57
2018-04-24T16:33:19.962Z,42.07
2018-04-24T16:35:47.592Z,42.77
2018-04-24T16:38:15.195Z,41.96
2018-04-24T16:40:42.804Z,42.50
2018-04-24T16:43:10.380Z,43.86
2018-04-24T16:45:37.991Z,44.83
2018-04-24T16:48:05.669Z,45.69
2018-04-24T16:50:33.255Z,46.64
2018-04-24T16:53:00.877Z,46.74
2018-04-24T16:55:28.464Z,47.23
2018-04-24T16:57:56.037Z,48.20
2018-04-24T17:00:23.687Z,48.17
2018-04-24T17:02:51.265Z,49.55
2018-04-24T17:05:18.837Z,49.84
2018-04-24T17:07:46.444Z,49.96
2018-04-24T17:10:14.025Z,50.27
2018-04-24T17:12:41.627Z,50.71
2018-04-24T17:15:09.227Z,52.03
2018-04-24T17:17:36.801Z,52.51
2018-04-24T17:20:04.425Z,52.18
2018-04-24T17:22:32.044Z,53.99
2018-04-24T17:24:59.617Z,55.15
2018-04-24T17:27:27.194Z,53.38
2018-04-24T17:29:54.823Z,53.08
2018-04-24T17:32:22.415Z,52.36
2018-04-24T17:34:50.164Z,53.09
2018-04-24T17:37:17.820Z,54.96
2018-04-24T17:39:45.392Z,52.07
2018-04-24T17:42:12.977Z,52.85
2018-04-24T17:44:40.604Z,50.32
2018-04-24T17:47:08.283Z,47.97
2018-04-24T17:49:36.032Z,49.40
2018-04-24T17:52:03.654Z,48.02
2018-04-24T17:54:31.249Z,47.87
2018-04-24T17:56:58.824Z,48.13
2018-04-24T17:59:26.426Z,49.37
2018-04-24T18:01:54.006Z,48.62
2018-04-24T18:04:21.573Z,47.40
2018-04-24T18:06:49.338Z,47.39
2018-04-24T18:09:17.049Z,47.15
2018-04-24T18:11:44.709Z,48.04
2018-04-24T18:14:12.383Z,47.48
2018-04-24T18:16:39.940Z,47.43
2018-04-24T18:19:07.696Z,47.56
2018-04-24T18:21:35.384Z,48.03
2018-04-24T18:24:03.058Z,48.31
2018-04-24T18:26:30.668Z,49.11
2018-04-24T18:28:58.363Z,48.26
2018-04-24T18:31:25.949Z,48.42
2018-04-24T18:33:53.514Z,48.22
2018-04-24T18:36:21.126Z,48.45
2018-04-24T18:38:48.701Z,48.13
2018-04-24T18:41:16.263Z,48.47
2018-04-24T18:43:43.909Z,48.31
2018-04-24T18:46:11.492Z,48.56
2018-04-24T18:48:39.056Z,48.40
2018-04-24T18:51:06.671Z,48.53
2018-04-24T18:53:34.249Z,48.00
2018-04-24T18:56:01.839Z,48.80
2018-04-24T18:58:29.451Z,47.71
2018-04-24T19:00:57.026Z,47.85
2018-04-24T19:03:24.596Z,48.12
2018-04-24T19:05:52.559Z,48.29
2018-04-24T19:08:20.147Z,49.02
2018-04-24T19:10:47.789Z,49.55
2018-04-24T19:13:15.428Z,49.69
2018-04-24T19:15:43.106Z,50.91
2018-04-24T19:18:10.713Z,50.72
2018-04-24T19:20:38.326Z,50.25
2018-04-24T19:23:05.985Z,49.92
2018-04-24T19:25:39.166Z,49.76
2018-04-24T19:28:06.942Z,49.68
2018-04-24T19:30:34.507Z,48.88
2018-04-24T19:33:02.106Z,48.82
2018-04-24T19:35:29.704Z,48.48
2018-04-24T19:37:57.288Z,51.09
2018-04-24T19:40:30.319Z,52.60
2018-04-24T19:42:57.909Z,56.94
2018-04-24T19:45:25.501Z,66.01
2018-04-24T19:47:53.103Z,71.43
2018-04-24T19:50:20.671Z,77.17
2018-04-24T19:52:48.247Z,78.31
2018-04-24T19:55:21.394Z,79.70
2018-04-24T19:57:48.979Z,80.83
2018-04-24T20:00:16.605Z,85.62
2018-04-24T20:02:44.212Z,87.34
2018-04-24T20:05:11.792Z,84.97
2018-04-24T20:07:39.401Z,76.46
2018-04-24T20:10:07.028Z,77.36
2018-04-24T20:12:34.600Z,76.47
2018-04-24T20:15:02.174Z,75.70
2018-04-24T20:17:29.784Z,77.12
2018-04-24T20:19:57.357Z,76.39
2018-04-24T20:22:25.013Z,77.15
2018-04-24T20:24:52.645Z,79.77
2018-04-24T20:27:20.578Z,79.85
2018-04-24T20:29:48.159Z,82.09
2018-04-24T20:32:15.818Z,85.56
2018-04-24T20:34:43.436Z,81.96
2018-04-24T20:37:11.016Z,84.17
2018-04-24T20:39:38.628Z,83.21
2018-04-24T20:42:06.212Z,83.85
2018-04-24T20:44:33.804Z,81.87
2018-04-24T20:47:01.404Z,82.38
2018-04-24T20:49:29.027Z,81.53
2018-04-24T20:51:56.647Z,81.42
2018-04-24T20:54:24.295Z,83.10
2018-04-24T20:56:51.956Z,83.60
2018-04-24T20:59:19.588Z,85.34
2018-04-24T21:01:47.197Z,85.48
2018-04-24T21:04:14.803Z,85.55
2018-04-24T21:06:42.388Z,81.64
2018-04-24T21:09:10.005Z,83.84
2018-04-24T21:11:37.756Z,79.19
2018-04-24T21:14:05.340Z,77.43
2018-04-24T21:16:32.982Z,79.46
2018-04-24T21:19:00.606Z,81.02
2018-04-24T21:21:28.179Z,76.82
2018-04-24T21:23:55.753Z,77.19
2018-04-24T21:26:23.350Z,77.34
2018-04-24T21:28:50.922Z,80.76
2018-04-24T21:31:18.487Z,82.17
2018-04-24T21:33:46.094Z,81.48
2018-04-24T21:36:13.651Z,80.08
2018-04-24T21:38:41.209Z,83.31
2018-04-24T21:41:08.804Z,82.15
2018-04-24T21:43:36.371Z,83.90
2018-04-24T21:46:04.006Z,86.82
2018-04-24T21:48:31.667Z,86.71
2018-04-24T21:50:59.229Z,85.91
2018-04-24T21:53:26.977Z,87.22
2018-04-24T21:55:54.597Z,88.14
2018-04-24T21:58:22.198Z,89.55
2018-04-24T22:00:49.783Z,89.35
2018-04-24T22:03:17.390Z,89.91
2018-04-24T22:05:45.217Z,90.67
2018-04-24T22:08:12.973Z,91.00
2018-04-24T22:10:40.583Z,90.77
2018-04-24T22:13:08.302Z,91.78
2018-04-24T22:15:35.958Z,91.49
2018-04-24T22:18:03.626Z,91.46
2018-04-24T22:20:31.206Z,91.54
2018-04-24T22:22:58.940Z,91.12
2018-04-24T22:25:26.613Z,89.86
2018-04-24T22:27:54.196Z,89.30
2018-04-24T22:30:21.758Z,91.36
2018-04-24T22:32:49.525Z,90.25
2018-04-24T22:35:17.111Z,89.90
2018-04-24T22:37:44.700Z,90.21
2018-04-24T22:40:12.325Z,90.22
2018-04-24T22:42:40.033Z,91.32
2018-04-24T22:45:07.620Z,90.78
2018-04-24T22:47:35.232Z,91.15
2018-04-24T22:50:02.812Z,91.17
2018-04-24T22:52:30.389Z,91.33
2018-04-24T22:54:58.004Z,92.29
2018-04-24T22:57:25.588Z,93.30
2018-04-24T22:59:53.168Z,93.33
2018-04-24T23:02:21.167Z,92.35
2018-04-24T23:04:48.756Z,92.76
2018-04-24T23:07:16.338Z,92.93
2018-04-24T23:09:53.570Z,93.03
2018-04-24T23:12:32.724Z,93.26
2018-04-24T23:15:12.205Z,93.64
2018-04-24T23:17:51.469Z,93.37
2018-04-24T23:20:18.528Z,93.02
2018-04-24T23:22:46.139Z,93.29
2018-04-24T23:25:13.877Z,94.17
2018-04-24T23:27:41.587Z,94.11
2018-04-24T23:30:09.166Z,93.95
2018-04-24T23:32:36.753Z,94.95
2018-04-24T23:35:04.353Z,96.42
2018-04-24T23:37:31.917Z,96.29
2018-04-24T23:39:59.697Z,96.86
2018-04-24T23:42:27.340Z,96.32
2018-04-24T23:44:54.926Z,96.47
2018-04-24T23:47:22.524Z,96.07
2018-04-24T23:49:50.245Z,95.97
2018-04-24T23:52:17.837Z,96.05
2018-04-24T23:54:45.430Z,96.17
2018-04-24T23:57:13.053Z,95.95
2018-04-24T23:59:40.633Z,95.39
